createdAt,value
2018-07-23T00:02:01.693Z,7.40
2018-07-23T00:04:29.967Z,7.60
2018-07-23T00:06:58.280Z,8.03
2018-07-23T00:09:26.553Z,8.00
2018-07-23T00:11:54.860Z,7.93
2018-07-23T00:14:23.129Z,8.00
2018-07-23T00:16:51.432Z,7.53
2018-07-23T00:19:19.653Z,8.30
2018-07-23T00:21:47.904Z,7.67
2018-07-23T00:24:16.209Z,7.90
2018-07-23T00:26:44.450Z,8.40
2018-07-23T00:29:12.737Z,7.43
2018-07-23T00:31:41.041Z,9.27
2018-07-23T00:34:09.357Z,7.30
2018-07-23T00:36:38.616Z,7.60
2018-07-23T00:39:08.099Z,7.23
2018-07-23T00:41:36.488Z,6.93
2018-07-23T00:44:04.890Z,7.70
2018-07-23T00:46:33.269Z,6.97
2018-07-23T00:49:01.589Z,7.03
2018-07-23T00:51:29.904Z,7.60
2018-07-23T00:53:58.193Z,7.27
2018-07-23T00:56:26.445Z,7.07
2018-07-23T00:58:54.714Z,7.27
2018-07-23T01:01:22.969Z,7.40
2018-07-23T01:03:51.270Z,7.80
2018-07-23T01:06:19.517Z,6.70
2018-07-23T01:08:47.813Z,7.57
2018-07-23T01:11:16.100Z,7.10
2018-07-23T01:13:44.353Z,7.27
2018-07-23T01:16:12.636Z,6.50
2018-07-23T01:18:40.932Z,8.67
2018-07-23T01:21:09.200Z,7.93
2018-07-23T01:23:37.473Z,7.00
2018-07-23T01:26:06.306Z,7.73
2018-07-23T01:28:34.553Z,8.57
2018-07-23T01:31:02.857Z,8.10
2018-07-23T01:33:31.122Z,7.47
2018-07-23T01:35:59.413Z,8.57
2018-07-23T01:38:27.664Z,7.80
2018-07-23T01:40:55.950Z,7.73
2018-07-23T01:43:24.203Z,7.10
2018-07-23T01:45:52.500Z,7.93
2018-07-23T01:48:20.769Z,7.80
2018-07-23T01:50:49.061Z,7.50
2018-07-23T01:53:17.334Z,8.63
2018-07-23T01:55:45.624Z,7.83
2018-07-23T01:58:13.974Z,8.53
2018-07-23T02:00:42.326Z,8.00
2018-07-23T02:03:10.597Z,8.30
2018-07-23T02:05:38.892Z,7.27
2018-07-23T02:08:07.207Z,7.53
2018-07-23T02:10:35.505Z,8.13
2018-07-23T02:13:03.824Z,9.00
2018-07-23T02:15:32.104Z,8.83
2018-07-23T02:18:00.381Z,7.60
2018-07-23T02:20:28.626Z,8.10
2018-07-23T02:22:56.945Z,8.53
2018-07-23T02:25:25.225Z,9.77
2018-07-23T02:27:53.517Z,9.93
2018-07-23T02:30:21.777Z,8.77
2018-07-23T02:32:50.087Z,7.37
2018-07-23T02:35:18.338Z,8.57
2018-07-23T02:37:46.622Z,9.80
2018-07-23T02:40:14.885Z,9.90
2018-07-23T02:42:43.202Z,10.20
2018-07-23T02:45:11.457Z,8.17
2018-07-23T02:47:39.737Z,9.77
2018-07-23T02:50:08.011Z,7.43
2018-07-23T02:52:37.318Z,8.63
2018-07-23T02:55:05.582Z,9.20
2018-07-23T02:57:33.846Z,9.57
2018-07-23T03:00:02.127Z,8.40
2018-07-23T03:02:30.367Z,10.53
2018-07-23T03:04:58.681Z,10.07
2018-07-23T03:07:26.937Z,9.17
2018-07-23T03:09:55.225Z,9.77
2018-07-23T03:12:23.488Z,9.53
2018-07-23T03:14:52.777Z,9.90
2018-07-23T03:17:21.166Z,10.47
2018-07-23T03:19:49.440Z,8.93
2018-07-23T03:22:17.697Z,10.90
2018-07-23T03:24:46.361Z,10.87
2018-07-23T03:27:14.613Z,10.53
2018-07-23T03:29:42.905Z,10.07
2018-07-23T03:32:11.177Z,9.07
2018-07-23T03:34:39.464Z,11.50
2018-07-23T03:37:07.723Z,11.40
2018-07-23T03:39:38.039Z,11.20
2018-07-23T03:42:06.497Z,9.80
2018-07-23T03:44:34.785Z,11.53
2018-07-23T03:47:03.045Z,10.27
2018-07-23T03:49:31.357Z,9.67
2018-07-23T03:51:59.606Z,10.20
2018-07-23T03:54:28.896Z,10.13
2018-07-23T03:56:57.205Z,10.07
2018-07-23T03:59:25.467Z,9.60
2018-07-23T04:01:53.746Z,9.40
2018-07-23T04:04:22.013Z,10.10
2018-07-23T04:06:50.332Z,11.13
2018-07-23T04:09:18.613Z,10.50
2018-07-23T04:11:46.901Z,10.10
2018-07-23T04:14:15.645Z,10.60
2018-07-23T04:16:43.918Z,9.13
2018-07-23T04:19:12.181Z,10.50
2018-07-23T04:21:40.481Z,10.40
2018-07-23T04:24:08.769Z,9.50
2018-07-23T04:26:37.064Z,10.23
2018-07-23T04:29:05.510Z,10.10
2018-07-23T04:31:33.907Z,8.93
2018-07-23T04:34:04.215Z,9.60
2018-07-23T04:36:32.492Z,8.90
2018-07-23T04:39:00.750Z,9.30
2018-07-23T04:41:29.060Z,8.77
2018-07-23T04:43:57.323Z,8.37
2018-07-23T04:46:25.609Z,10.10
2018-07-23T04:48:53.906Z,9.23
2018-07-23T04:51:22.189Z,8.60
2018-07-23T04:53:50.460Z,8.73
2018-07-23T04:56:18.716Z,8.93
2018-07-23T04:58:46.997Z,8.50
2018-07-23T05:01:15.279Z,8.03
2018-07-23T05:03:43.600Z,8.40
2018-07-23T05:06:11.969Z,7.30
2018-07-23T05:08:40.319Z,8.27
2018-07-23T05:11:09.533Z,8.07
2018-07-23T05:13:37.829Z,8.07
2018-07-23T05:16:06.191Z,8.10
2018-07-23T05:18:34.392Z,7.37
2018-07-23T05:21:02.647Z,7.40
2018-07-23T05:23:31.020Z,8.43
2018-07-23T05:25:59.289Z,7.23
2018-07-23T05:28:27.569Z,8.03
2018-07-23T05:30:55.821Z,7.57
2018-07-23T05:33:24.088Z,6.27
2018-07-23T05:35:52.372Z,7.43
2018-07-23T05:38:20.636Z,7.23
2018-07-23T05:40:48.937Z,6.73
2018-07-23T05:43:17.193Z,7.70
2018-07-23T05:45:45.470Z,7.63
2018-07-23T05:48:13.786Z,7.40
2018-07-23T05:50:42.073Z,7.43
2018-07-23T05:53:11.361Z,7.67
2018-07-23T05:55:39.636Z,7.23
2018-07-23T05:58:07.892Z,8.80
2018-07-23T06:00:40.125Z,6.33
2018-07-23T06:03:09.589Z,8.30
2018-07-23T06:05:37.912Z,6.83
2018-07-23T06:08:06.230Z,7.10
2018-07-23T06:10:34.526Z,6.63
2018-07-23T06:13:02.848Z,6.70
2018-07-23T06:15:31.574Z,6.30
2018-07-23T06:17:59.935Z,7.10
2018-07-23T06:20:28.291Z,7.00
2018-07-23T06:22:56.701Z,7.00
2018-07-23T06:25:25.027Z,6.90
2018-07-23T06:27:54.757Z,6.80
2018-07-23T06:30:23.079Z,7.87
2018-07-23T06:32:51.343Z,7.43
2018-07-23T06:35:19.645Z,6.13
2018-07-23T06:37:47.954Z,5.73
2018-07-23T06:40:18.229Z,6.53
2018-07-23T06:42:46.512Z,6.20
2018-07-23T06:45:14.785Z,6.17
2018-07-23T06:47:43.061Z,6.40
2018-07-23T06:50:11.329Z,6.60
2018-07-23T06:52:39.621Z,6.47
2018-07-23T06:55:08.915Z,6.27
2018-07-23T06:57:37.201Z,6.20
2018-07-23T07:00:06.109Z,5.93
2018-07-23T07:02:34.416Z,6.63
2018-07-23T07:05:02.845Z,5.80
2018-07-23T07:07:32.207Z,6.73
2018-07-23T07:10:02.567Z,6.27
2018-07-23T07:12:30.999Z,7.30
2018-07-23T07:14:59.255Z,5.77
2018-07-23T07:17:27.759Z,6.77
2018-07-23T07:19:56.076Z,6.23
2018-07-23T07:22:26.373Z,7.17
2018-07-23T07:24:54.681Z,5.07
2018-07-23T07:27:24.287Z,5.80
2018-07-23T07:29:52.533Z,5.77
2018-07-23T07:32:20.778Z,5.70
2018-07-23T07:34:51.235Z,7.20
2018-07-23T07:37:19.437Z,5.90
2018-07-23T07:39:48.745Z,5.30
2018-07-23T07:42:17.023Z,5.97
2018-07-23T07:44:47.380Z,5.70
2018-07-23T07:47:15.644Z,5.23
2018-07-23T07:49:43.916Z,7.13
2018-07-23T07:52:13.056Z,5.53
2018-07-23T07:54:41.382Z,7.60
2018-07-23T07:57:10.640Z,5.47
2018-07-23T07:59:39.997Z,5.20
2018-07-23T08:02:08.341Z,5.60
2018-07-23T08:04:36.633Z,4.90
2018-07-23T08:07:04.994Z,4.40
2018-07-23T08:09:33.273Z,5.93
2018-07-23T08:12:02.590Z,5.27
2018-07-23T08:14:30.861Z,5.60
2018-07-23T08:16:59.124Z,6.47
2018-07-23T08:19:27.401Z,5.20
2018-07-23T08:21:55.660Z,5.03
2018-07-23T08:24:23.961Z,6.27
2018-07-23T08:26:52.236Z,5.50
2018-07-23T08:29:20.532Z,6.03
2018-07-23T08:31:48.954Z,5.67
2018-07-23T08:34:18.169Z,5.10
2018-07-23T08:36:46.473Z,5.50
2018-07-23T08:39:14.748Z,5.60
2018-07-23T08:41:43.059Z,5.63
2018-07-23T08:44:11.381Z,5.80
2018-07-23T08:46:40.764Z,5.07
2018-07-23T08:49:09.008Z,5.93
2018-07-23T08:51:38.485Z,6.40
2018-07-23T08:54:07.393Z,6.70
2018-07-23T08:56:37.788Z,6.80
2018-07-23T08:59:06.029Z,6.27
2018-07-23T09:01:34.313Z,5.37
2018-07-23T09:04:02.577Z,5.47
2018-07-23T09:06:30.852Z,5.47
2018-07-23T09:08:59.105Z,5.50
2018-07-23T09:11:27.397Z,4.90
2018-07-23T09:13:55.649Z,5.00
2018-07-23T09:16:23.945Z,4.23
2018-07-23T09:18:52.190Z,4.80
2018-07-23T09:21:20.509Z,4.47
2018-07-23T09:23:48.823Z,5.17
2018-07-23T09:26:18.038Z,4.77
2018-07-23T09:28:48.318Z,5.83
2018-07-23T09:31:16.581Z,5.60
2018-07-23T09:33:44.858Z,5.27
2018-07-23T09:36:13.123Z,4.73
2018-07-23T09:38:42.505Z,4.40
2018-07-23T09:41:10.783Z,5.30
2018-07-23T09:43:39.072Z,5.73
2018-07-23T09:46:07.329Z,5.80
2018-07-23T09:48:35.687Z,5.30
2018-07-23T09:51:03.929Z,4.80
2018-07-23T09:53:32.197Z,4.70
2018-07-23T09:56:01.438Z,5.30
2018-07-23T09:58:29.742Z,5.40
2018-07-23T10:01:04.345Z,5.60
2018-07-23T10:03:33.088Z,5.53
2018-07-23T10:06:01.225Z,5.00
2018-07-23T10:08:29.545Z,5.00
2018-07-23T10:10:57.858Z,4.93
2018-07-23T10:13:27.146Z,5.07
2018-07-23T10:15:55.397Z,5.20
2018-07-23T10:18:24.758Z,4.40
2018-07-23T10:20:53.013Z,4.23
2018-07-23T10:23:21.369Z,4.53
2018-07-23T10:25:49.637Z,3.93
2018-07-23T10:28:17.902Z,4.50
2018-07-23T10:30:47.168Z,4.90
2018-07-23T10:33:15.453Z,5.43
2018-07-23T10:35:43.742Z,5.53
2018-07-23T10:38:12.019Z,5.53
2018-07-23T10:40:41.369Z,4.47
2018-07-23T10:43:09.700Z,4.87
2018-07-23T10:45:37.983Z,4.43
2018-07-23T10:48:06.613Z,4.27
2018-07-23T10:50:34.893Z,4.40
2018-07-23T10:53:03.197Z,5.33
2018-07-23T10:55:32.551Z,4.67
2018-07-23T10:58:01.677Z,5.20
2018-07-23T11:00:29.997Z,5.30
2018-07-23T11:02:58.248Z,4.30
2018-07-23T11:05:26.537Z,5.70
2018-07-23T11:07:54.805Z,5.40
2018-07-23T11:10:23.197Z,5.20
2018-07-23T11:12:51.554Z,5.10
2018-07-23T11:15:19.791Z,4.50
2018-07-23T11:17:48.053Z,5.13
2018-07-23T11:20:16.327Z,5.97
2018-07-23T11:22:44.637Z,5.17
2018-07-23T11:25:38.595Z,5.47
2018-07-23T11:27:41.246Z,4.50
2018-07-23T11:30:09.538Z,5.47
2018-07-23T11:32:37.829Z,6.07
2018-07-23T11:35:06.481Z,5.07
2018-07-23T11:37:34.767Z,5.60
2018-07-23T11:40:03.274Z,5.57
2018-07-23T11:42:32.761Z,5.27
2018-07-23T11:45:01.002Z,5.97
2018-07-23T11:47:29.293Z,5.10
2018-07-23T11:49:57.556Z,5.67
2018-07-23T11:52:26.117Z,5.03
2018-07-23T11:54:54.405Z,4.60
2018-07-23T11:57:22.680Z,5.10
2018-07-23T11:59:50.945Z,4.43
2018-07-23T12:02:19.225Z,8.60
2018-07-23T12:04:47.529Z,5.60
2018-07-23T12:07:15.812Z,4.90
2018-07-23T12:09:44.099Z,5.77
2018-07-23T12:12:12.366Z,4.33
2018-07-23T12:14:41.784Z,5.33
2018-07-23T12:17:10.159Z,4.77
2018-07-23T12:19:38.451Z,4.40
2018-07-23T12:22:06.765Z,4.80
2018-07-23T12:24:35.080Z,5.47
2018-07-23T12:27:03.329Z,5.20
2018-07-23T12:29:32.683Z,4.53
2018-07-23T12:32:01.933Z,4.47
2018-07-23T12:34:30.224Z,4.50
2018-07-23T12:36:58.474Z,3.73
2018-07-23T12:39:26.759Z,4.53
2018-07-23T12:41:55.023Z,3.73
2018-07-23T12:44:23.361Z,4.40
2018-07-23T12:46:51.606Z,4.30
2018-07-23T12:49:19.898Z,3.70
2018-07-23T12:51:48.160Z,4.30
2018-07-23T12:54:17.506Z,4.13
2018-07-23T12:56:45.769Z,4.37
2018-07-23T12:59:15.117Z,3.40
2018-07-23T13:01:44.461Z,3.97
2018-07-23T13:04:14.805Z,4.57
2018-07-23T13:06:43.670Z,4.30
2018-07-23T13:09:12.986Z,3.77
2018-07-23T13:11:41.261Z,4.50
2018-07-23T13:14:09.740Z,4.63
2018-07-23T13:16:38.024Z,3.97
2018-07-23T13:19:06.381Z,4.40
2018-07-23T13:21:34.708Z,4.50
2018-07-23T13:24:03.171Z,4.37
2018-07-23T13:26:31.477Z,4.80
2018-07-23T13:28:59.716Z,5.00
2018-07-23T13:31:28.050Z,4.00
2018-07-23T13:33:56.317Z,4.13
2018-07-23T13:36:25.669Z,4.10
2018-07-23T13:38:54.242Z,4.10
2018-07-23T13:41:22.574Z,3.67
2018-07-23T13:43:52.929Z,4.17
2018-07-23T13:46:21.255Z,3.93
2018-07-23T13:48:49.501Z,3.70
2018-07-23T13:51:17.841Z,3.73
2018-07-23T13:53:49.637Z,3.30
2018-07-23T13:56:18.206Z,4.00
2018-07-23T13:58:46.481Z,3.23
2018-07-23T14:01:14.877Z,3.27
2018-07-23T14:03:43.222Z,2.80
2018-07-23T14:21:40.500Z,2.47
2018-07-23T14:24:08.857Z,3.03
2018-07-23T14:26:37.109Z,3.07
2018-07-23T14:29:05.921Z,2.53
2018-07-23T14:31:34.178Z,2.67
2018-07-23T14:34:02.515Z,2.80
2018-07-23T14:36:30.789Z,2.57
2018-07-23T14:39:00.189Z,2.90
2018-07-23T14:41:28.462Z,2.40
2018-07-23T14:43:56.793Z,2.40
2018-07-23T14:46:25.265Z,2.40
2018-07-23T14:48:53.541Z,2.60
2018-07-23T14:51:21.930Z,3.07
2018-07-23T14:53:50.263Z,2.60
2018-07-23T14:56:18.529Z,2.87
2018-07-23T14:58:46.817Z,2.70
2018-07-23T15:01:15.079Z,2.30
2018-07-23T15:03:43.616Z,2.43
2018-07-23T15:06:12.225Z,2.40
2018-07-23T15:08:40.571Z,2.30
2018-07-23T15:11:09.122Z,2.33
2018-07-23T15:13:37.433Z,2.30
2018-07-23T15:16:06.067Z,2.90
2018-07-23T15:18:34.628Z,2.77
2018-07-23T15:21:03.079Z,2.27
2018-07-23T15:23:31.325Z,3.00
2018-07-23T15:25:59.802Z,2.50
2018-07-23T15:28:28.053Z,2.80
2018-07-23T15:30:56.405Z,2.50
2018-07-23T15:33:25.681Z,2.47
2018-07-23T15:35:53.967Z,2.50
2018-07-23T15:38:22.372Z,2.10
2018-07-23T15:40:50.661Z,2.20
2018-07-23T15:43:18.940Z,2.77
2018-07-23T15:45:47.603Z,2.43
2018-07-23T15:48:15.576Z,2.27
2018-07-23T15:50:44.030Z,2.87
2018-07-23T15:53:12.288Z,3.33
2018-07-23T15:55:40.571Z,2.37
2018-07-23T15:58:09.881Z,2.90
2018-07-23T16:00:39.245Z,2.70
2018-07-23T16:03:07.569Z,2.77
2018-07-23T16:05:36.821Z,2.67
2018-07-23T16:08:08.877Z,2.93
2018-07-23T16:10:37.150Z,2.47
2018-07-23T16:13:05.436Z,2.90
2018-07-23T16:15:33.693Z,2.60
2018-07-23T16:18:01.981Z,2.80
2018-07-23T16:20:30.241Z,3.20
2018-07-23T16:22:58.529Z,2.70
2018-07-23T16:25:26.813Z,2.00
2018-07-23T16:27:55.125Z,2.77
2018-07-23T16:30:23.413Z,2.47
2018-07-23T16:32:51.723Z,3.00
2018-07-23T16:35:20.973Z,2.93
2018-07-23T16:37:49.253Z,3.70
2018-07-23T16:40:17.515Z,3.00
2018-07-23T16:42:45.811Z,3.27
2018-07-23T16:45:14.060Z,2.90
2018-07-23T16:47:42.362Z,3.10
2018-07-23T16:50:10.620Z,3.67
2018-07-23T16:52:39.953Z,3.60
2018-07-23T16:55:08.400Z,2.90
2018-07-23T16:57:42.461Z,2.90
2018-07-23T17:00:10.909Z,3.40
2018-07-23T17:02:40.516Z,3.73
2018-07-23T17:05:08.789Z,3.17
2018-07-23T17:07:37.065Z,3.20
2018-07-23T17:10:05.418Z,2.70
2018-07-23T17:12:33.819Z,3.90
2018-07-23T17:15:02.347Z,2.90
2018-07-23T17:17:30.589Z,3.40
2018-07-23T17:19:58.892Z,3.73
2018-07-23T17:22:27.200Z,3.73
2018-07-23T17:24:55.522Z,4.37
2018-07-23T17:27:23.819Z,3.70
2018-07-23T17:29:52.152Z,3.97
2018-07-23T17:32:20.422Z,4.47
2018-07-23T17:34:48.717Z,3.90
2018-07-23T17:37:18.220Z,4.10
2018-07-23T17:39:46.500Z,4.70
2018-07-23T17:42:14.749Z,4.60
2018-07-23T17:44:44.104Z,4.50
2018-07-23T17:47:12.364Z,4.03
2018-07-23T17:49:40.626Z,12.20
2018-07-23T17:52:09.033Z,4.50
2018-07-23T17:54:37.325Z,4.90
2018-07-23T17:57:05.691Z,4.70
2018-07-23T17:59:33.916Z,4.60
2018-07-23T18:02:03.292Z,4.93
2018-07-23T18:04:32.740Z,4.70
2018-07-23T18:07:01.029Z,5.03
2018-07-23T18:09:29.769Z,5.07
2018-07-23T18:11:58.112Z,5.00
2018-07-23T18:14:27.387Z,4.30
2018-07-23T18:16:56.713Z,5.07
2018-07-23T18:19:24.971Z,5.10
2018-07-23T18:21:53.240Z,4.90
2018-07-23T18:24:21.553Z,5.40
2018-07-23T18:26:49.836Z,4.60
2018-07-23T18:29:18.136Z,4.00
2018-07-23T18:31:46.477Z,4.77
2018-07-23T18:34:14.714Z,4.07
2018-07-23T18:36:42.980Z,4.60
2018-07-23T18:39:12.990Z,5.53
2018-07-23T18:41:41.855Z,5.03
2018-07-23T18:44:10.411Z,4.77
2018-07-23T18:46:38.817Z,4.50
2018-07-23T18:49:30.150Z,6.33
2018-07-23T18:51:58.467Z,5.00
2018-07-23T18:54:27.885Z,4.53
2018-07-23T18:56:58.382Z,5.10
2018-07-23T18:59:26.657Z,4.30
2018-07-23T19:01:55.832Z,5.00
2018-07-23T19:04:24.133Z,4.63
2018-07-23T19:06:52.415Z,5.17
2018-07-23T19:09:22.689Z,5.03
2018-07-23T19:11:52.517Z,5.17
2018-07-23T19:14:21.086Z,5.77
2018-07-23T19:16:50.257Z,5.67
2018-07-23T19:19:18.558Z,4.93
2018-07-23T19:21:46.817Z,4.80
2018-07-23T19:24:15.146Z,4.60
2018-07-23T19:26:43.461Z,5.50
2018-07-23T19:29:11.733Z,5.57
2018-07-23T19:31:39.981Z,4.43
2018-07-23T19:34:08.321Z,5.27
2018-07-23T19:36:36.602Z,5.20
2018-07-23T19:39:08.817Z,4.77
2018-07-23T19:41:37.528Z,4.90
2018-07-23T19:44:05.962Z,4.93
2018-07-23T19:46:34.260Z,5.17
2018-07-23T19:49:02.537Z,4.30
2018-07-23T19:51:30.816Z,4.70
2018-07-23T19:53:59.070Z,5.10
2018-07-23T19:56:27.346Z,3.97
2018-07-23T19:58:55.601Z,4.57
2018-07-23T20:01:23.872Z,4.60
2018-07-23T20:03:52.118Z,4.57
2018-07-23T20:06:23.793Z,5.33
2018-07-23T20:08:53.060Z,4.90
2018-07-23T20:11:23.109Z,4.03
2018-07-23T20:13:51.657Z,4.90
2018-07-23T20:16:20.072Z,5.50
2018-07-23T20:18:48.341Z,4.37
2018-07-23T20:21:16.636Z,4.85
2018-07-23T20:23:45.273Z,4.90
2018-07-23T20:26:13.785Z,4.67
2018-07-23T20:28:42.031Z,4.90
2018-07-23T20:31:10.322Z,5.30
2018-07-23T20:33:38.642Z,5.50
2018-07-23T20:36:07.061Z,4.40
2018-07-23T20:38:35.781Z,4.40
2018-07-23T20:41:04.110Z,4.70
2018-07-23T20:43:33.657Z,5.10
2018-07-23T20:46:03.241Z,5.00
2018-07-23T20:48:31.605Z,5.10
2018-07-23T20:50:59.949Z,5.13
2018-07-23T20:53:28.218Z,4.70
2018-07-23T20:55:56.469Z,4.73
2018-07-23T20:58:24.769Z,5.07
2018-07-23T21:00:53.013Z,5.10
2018-07-23T21:03:21.754Z,4.97
2018-07-23T21:05:50.013Z,5.37
2018-07-23T21:08:18.293Z,5.60
2018-07-23T21:10:46.557Z,4.77
2018-07-23T21:13:14.833Z,5.20
2018-07-23T21:15:43.085Z,5.53
2018-07-23T21:18:12.504Z,5.77
2018-07-23T21:20:40.873Z,5.17
2018-07-23T21:23:09.194Z,5.77
2018-07-23T21:25:37.468Z,5.60
2018-07-23T21:28:05.796Z,5.20
2018-07-23T21:30:34.076Z,6.73
2018-07-23T21:33:02.345Z,5.57
2018-07-23T21:35:30.694Z,6.30
2018-07-23T21:37:58.956Z,6.20
2018-07-23T21:40:27.356Z,6.77
2018-07-23T21:42:55.604Z,7.10
2018-07-23T21:45:23.885Z,6.93
2018-07-23T21:47:52.129Z,6.53
2018-07-23T21:50:21.476Z,6.80
2018-07-23T21:52:49.718Z,7.70
2018-07-23T21:55:18.019Z,7.20
2018-07-23T21:57:46.255Z,7.10
2018-07-23T22:00:15.536Z,6.93
2018-07-23T22:02:44.878Z,7.63
2018-07-23T22:05:14.253Z,6.90
2018-07-23T22:07:42.497Z,8.53
2018-07-23T22:10:11.106Z,7.60
2018-07-23T22:12:39.370Z,6.50
2018-07-23T22:15:09.797Z,7.70
2018-07-23T22:17:38.149Z,7.43
2018-07-23T22:20:07.189Z,8.70
2018-07-23T22:22:35.461Z,8.77
2018-07-23T22:25:03.974Z,8.00
2018-07-23T22:27:32.490Z,8.60
2018-07-23T22:30:00.781Z,7.20
2018-07-23T22:32:29.106Z,8.80
2018-07-23T22:34:57.357Z,8.17
2018-07-23T22:37:25.637Z,7.23
2018-07-23T22:39:54.962Z,7.60
2018-07-23T22:42:25.493Z,7.50
2018-07-23T22:44:53.737Z,7.40
2018-07-23T22:47:22.033Z,6.60
2018-07-23T22:49:50.356Z,7.40
2018-07-23T22:52:18.661Z,7.80
2018-07-23T22:54:47.007Z,7.40
2018-07-23T22:57:15.288Z,7.03
2018-07-23T22:59:43.533Z,7.90
2018-07-23T23:02:11.798Z,8.63
2018-07-23T23:04:40.161Z,8.10
2018-07-23T23:07:08.441Z,7.90
2018-07-23T23:09:37.763Z,8.37
2018-07-23T23:12:06.061Z,8.40
2018-07-23T23:14:34.321Z,7.47
2018-07-23T23:18:05.200Z,7.50
2018-07-23T23:20:33.616Z,8.93
2018-07-23T23:23:01.953Z,8.37
2018-07-23T23:25:30.314Z,8.63
2018-07-23T23:27:58.608Z,8.63
2018-07-23T23:30:26.865Z,8.70
2018-07-23T23:32:55.137Z,8.27
2018-07-23T23:35:23.381Z,8.87
2018-07-23T23:37:51.676Z,8.80
2018-07-23T23:40:19.945Z,8.30
2018-07-23T23:42:48.193Z,9.60
2018-07-23T23:45:16.473Z,9.13
2018-07-23T23:47:44.717Z,9.07
2018-07-23T23:50:12.989Z,8.70
2018-07-23T23:52:41.239Z,8.30
2018-07-23T23:55:09.529Z,8.90
2018-07-23T23:57:37.773Z,9.00
